createdAt,value
2018-04-29T00:00:12.500Z,14.40
2018-04-29T00:02:40.673Z,15.40
2018-04-29T00:05:08.139Z,15.00
2018-04-29T00:07:35.547Z,16.25
2018-04-29T00:10:02.966Z,15.20
2018-04-29T00:12:31.180Z,14.73
2018-04-29T00:14:58.649Z,15.50
2018-04-29T00:17:26.073Z,15.17
2018-04-29T00:19:53.505Z,16.20
2018-04-29T00:22:20.924Z,15.83
2018-04-29T00:24:50.029Z,15.73
2018-04-29T00:27:18.264Z,14.60
2018-04-29T00:29:45.679Z,18.73
2018-04-29T00:32:13.113Z,16.50
2018-04-29T00:34:40.542Z,16.10
2018-04-29T00:37:08.019Z,14.43
2018-04-29T00:39:35.495Z,14.17
2018-04-29T00:42:02.904Z,14.40
2018-04-29T00:44:30.330Z,15.27
2018-04-29T00:46:57.740Z,15.30
2018-04-29T00:49:25.166Z,14.57
2018-04-29T00:52:04.580Z,14.00
2018-04-29T00:54:31.991Z,15.10
2018-04-29T00:56:59.433Z,15.00
2018-04-29T00:59:27.614Z,16.00
2018-04-29T01:01:55.813Z,15.10
2018-04-29T01:04:24.000Z,14.00
2018-04-29T01:06:51.400Z,14.07
2018-04-29T01:09:18.827Z,14.10
2018-04-29T01:11:46.248Z,13.73
2018-04-29T01:14:13.789Z,14.23
2018-04-29T01:16:41.251Z,14.30
2018-04-29T01:19:09.446Z,14.87
2018-04-29T01:21:36.892Z,13.97
2018-04-29T01:24:04.481Z,14.40
2018-04-29T01:26:31.901Z,15.97
2018-04-29T01:28:59.319Z,15.23
2018-04-29T01:31:26.733Z,16.20
2018-04-29T01:33:54.927Z,15.53
2018-04-29T01:36:23.108Z,15.73
2018-04-29T01:38:52.036Z,16.12
2018-04-29T01:41:21.146Z,15.77
2018-04-29T01:43:48.601Z,15.80
2018-04-29T01:46:16.776Z,17.47
2018-04-29T01:48:44.962Z,16.40
2018-04-29T01:51:12.392Z,17.20
2018-04-29T01:53:39.816Z,17.47
2018-04-29T01:56:08.036Z,16.47
2018-04-29T01:58:35.552Z,17.47
2018-04-29T02:01:03.067Z,17.10
2018-04-29T02:03:30.483Z,18.00
2018-04-29T02:05:58.026Z,18.20
2018-04-29T02:08:25.443Z,18.50
2018-04-29T02:10:53.633Z,19.00
2018-04-29T02:13:22.748Z,19.50
2018-04-29T02:15:50.335Z,18.60
2018-04-29T02:18:18.816Z,18.67
2018-04-29T02:20:46.244Z,20.90
2018-04-29T02:23:13.768Z,20.60
2018-04-29T02:25:41.205Z,22.27
2018-04-29T02:28:08.636Z,20.60
2018-04-29T02:30:36.069Z,20.50
2018-04-29T02:33:04.238Z,20.30
2018-04-29T02:35:32.424Z,19.00
2018-04-29T02:38:00.639Z,22.37
2018-04-29T02:40:28.800Z,20.88
2018-04-29T02:42:57.016Z,22.07
2018-04-29T02:45:24.448Z,21.60
2018-04-29T02:47:53.445Z,20.80
2018-04-29T02:50:21.672Z,20.70
2018-04-29T02:52:49.145Z,20.83
2018-04-29T02:55:16.575Z,20.30
2018-04-29T02:57:43.985Z,21.23
2018-04-29T03:00:11.424Z,23.97
2018-04-29T03:02:39.621Z,26.30
2018-04-29T03:05:07.071Z,23.20
2018-04-29T03:07:35.294Z,22.00
2018-04-29T03:10:02.751Z,22.60
2018-04-29T03:12:30.173Z,20.87
2018-04-29T03:14:57.796Z,20.10
2018-04-29T03:17:25.237Z,20.00
2018-04-29T03:19:53.349Z,19.20
2018-04-29T03:22:20.769Z,18.80
2018-04-29T03:24:48.184Z,19.07
2018-04-29T03:27:15.621Z,20.83
2018-04-29T03:29:43.800Z,19.07
2018-04-29T03:32:11.225Z,20.73
2018-04-29T03:34:38.654Z,18.67
2018-04-29T03:37:06.833Z,19.73
2018-04-29T03:39:35.055Z,20.80
2018-04-29T03:42:02.524Z,19.70
2018-04-29T03:44:29.980Z,20.30
2018-04-29T03:46:57.401Z,19.37
2018-04-29T03:49:24.822Z,18.93
2018-04-29T03:51:52.241Z,19.43
2018-04-29T03:54:19.664Z,19.50
2018-04-29T03:56:47.147Z,19.13
2018-04-29T03:59:27.136Z,18.70
2018-04-29T04:02:06.491Z,20.93
2018-04-29T04:04:34.031Z,18.90
2018-04-29T04:07:01.474Z,19.30
2018-04-29T04:09:28.908Z,18.80
2018-04-29T04:11:56.427Z,20.43
2018-04-29T04:14:25.311Z,19.95
2018-04-29T04:16:54.402Z,19.27
2018-04-29T04:19:22.589Z,17.93
2018-04-29T04:21:50.802Z,18.33
2018-04-29T04:24:18.221Z,17.60
2018-04-29T04:26:45.760Z,19.03
2018-04-29T04:29:13.200Z,18.97
2018-04-29T04:31:41.389Z,18.97
2018-04-29T04:34:08.922Z,19.30
2018-04-29T04:36:36.300Z,18.60
2018-04-29T04:39:03.717Z,17.90
2018-04-29T04:41:31.144Z,17.80
2018-04-29T04:43:59.341Z,19.00
2018-04-29T04:46:27.532Z,18.17
2018-04-29T04:48:55.174Z,18.67
2018-04-29T04:51:22.578Z,20.30
2018-04-29T04:53:50.002Z,19.37
2018-04-29T04:56:17.417Z,18.57
2018-04-29T04:58:44.860Z,18.37
2018-04-29T05:01:13.039Z,18.30
2018-04-29T05:03:41.255Z,18.30
2018-04-29T05:06:08.676Z,17.70
2018-04-29T05:08:36.103Z,17.67
2018-04-29T05:11:03.521Z,17.63
2018-04-29T05:13:32.436Z,18.77
2018-04-29T05:16:00.651Z,17.83
2018-04-29T05:18:28.074Z,18.20
2018-04-29T05:20:56.488Z,16.75
2018-04-29T05:23:25.631Z,17.57
2018-04-29T05:25:53.040Z,17.10
2018-04-29T05:28:20.462Z,16.77
2018-04-29T05:30:47.892Z,16.93
2018-04-29T05:33:15.393Z,16.50
2018-04-29T05:35:42.842Z,16.90
2018-04-29T12:15:56.696Z,7.67
2018-04-29T12:18:24.889Z,7.47
2018-04-29T12:20:53.166Z,7.00
2018-04-29T12:23:20.577Z,6.70
2018-04-29T12:25:47.980Z,7.07
2018-04-29T12:28:15.434Z,7.10
2018-04-29T12:30:42.848Z,7.33
2018-04-29T12:33:11.028Z,6.40
2018-04-29T12:35:39.208Z,6.80
2018-04-29T12:38:07.388Z,5.80
2018-04-29T12:40:34.928Z,5.93
2018-04-29T12:43:03.656Z,4.93
2018-04-29T12:45:31.281Z,5.70
2018-04-29T12:47:59.448Z,5.37
2018-04-29T12:50:26.872Z,5.33
2018-04-29T12:52:55.812Z,5.80
2018-04-29T12:55:24.016Z,5.50
2018-04-29T12:57:51.446Z,5.83
2018-04-29T13:00:18.850Z,5.43
2018-04-29T13:02:46.267Z,5.67
2018-04-29T13:05:13.672Z,4.73
2018-04-29T13:07:41.864Z,4.60
2018-04-29T13:10:09.264Z,5.10
2018-04-29T13:12:36.704Z,4.87
2018-04-29T13:15:04.116Z,5.57
2018-04-29T13:17:31.532Z,5.77
2018-04-29T13:19:58.943Z,5.43
2018-04-29T13:22:26.405Z,6.00
2018-04-29T13:24:53.892Z,5.70
2018-04-29T13:27:21.345Z,5.70
2018-04-29T13:29:48.789Z,4.73
2018-04-29T13:32:16.257Z,5.30
2018-04-29T13:34:44.439Z,4.33
2018-04-29T13:37:11.860Z,4.40
2018-04-29T13:39:39.384Z,4.33
2018-04-29T13:42:06.871Z,4.70
2018-04-29T13:44:34.240Z,4.63
2018-04-29T13:47:01.650Z,4.80
2018-04-29T13:49:29.130Z,4.83
2018-04-29T13:51:57.314Z,4.33
2018-04-29T13:54:25.503Z,4.83
2018-04-29T13:56:53.715Z,4.60
2018-04-29T13:59:21.869Z,3.90
2018-04-29T14:01:50.083Z,3.77
2018-04-29T14:04:18.232Z,4.60
2018-04-29T14:06:45.640Z,4.60
2018-04-29T14:09:13.112Z,4.55
2018-04-29T14:11:40.524Z,5.03
2018-04-29T14:14:07.945Z,5.13
2018-04-29T14:16:35.418Z,5.63
2018-04-29T14:19:02.832Z,5.03
2018-04-29T14:21:31.892Z,4.90
2018-04-29T14:23:59.295Z,4.67
2018-04-29T14:26:26.704Z,4.83
2018-04-29T14:28:54.113Z,4.67
2018-04-29T14:31:21.616Z,4.53
2018-04-29T14:33:49.027Z,5.20
2018-04-29T14:36:17.206Z,6.13
2018-04-29T14:38:44.631Z,5.43
2018-04-29T14:41:12.036Z,6.97
2018-04-29T14:43:39.468Z,5.67
2018-04-29T14:46:06.875Z,5.80
2018-04-29T14:48:35.245Z,6.30
2018-04-29T14:51:03.432Z,5.90
2018-04-29T14:53:31.624Z,6.83
2018-04-29T14:55:59.907Z,6.70
2018-04-29T14:58:27.241Z,7.40
2018-04-29T15:00:54.645Z,7.30
2018-04-29T15:03:22.832Z,6.60
2018-04-29T15:05:51.037Z,6.80
2018-04-29T15:08:18.460Z,6.70
2018-04-29T15:10:45.872Z,7.00
2018-04-29T15:13:13.288Z,6.70
2018-04-29T15:15:40.754Z,7.00
2018-04-29T15:18:08.151Z,7.00
2018-04-29T15:20:36.075Z,6.70
2018-04-29T15:23:04.244Z,6.47
2018-04-29T15:25:32.417Z,6.30
2018-04-29T15:28:00.734Z,6.57
2018-04-29T15:30:28.917Z,6.43
2018-04-29T15:32:56.381Z,6.60
2018-04-29T15:35:23.792Z,6.87
2018-04-29T15:37:51.208Z,8.47
2018-04-29T15:40:18.699Z,8.83
2018-04-29T15:42:46.906Z,8.37
2018-04-29T15:45:14.308Z,7.07
2018-04-29T15:47:42.485Z,7.60
2018-04-29T15:50:09.908Z,6.23
2018-04-29T15:52:37.373Z,5.77
2018-04-29T15:55:04.789Z,6.20
2018-04-29T15:57:32.229Z,6.83
2018-04-29T15:59:59.620Z,7.80
2018-04-29T16:02:28.138Z,7.53
2018-04-29T16:04:56.460Z,7.30
2018-04-29T16:07:23.877Z,8.00
2018-04-29T16:09:51.289Z,8.60
2018-04-29T16:12:18.700Z,9.10
2018-04-29T16:14:46.190Z,8.63
2018-04-29T16:17:14.292Z,7.83
2018-04-29T16:19:42.468Z,8.63
2018-04-29T16:22:10.646Z,7.83
2018-04-29T16:24:38.840Z,8.40
2018-04-29T16:27:07.945Z,7.90
2018-04-29T16:29:35.364Z,8.47
2018-04-29T16:32:04.340Z,7.87
2018-04-29T16:34:31.768Z,8.10
2018-04-29T16:36:59.196Z,8.10
2018-04-29T16:39:26.607Z,7.67
2018-04-29T16:41:54.014Z,7.83
2018-04-29T16:44:21.463Z,7.67
2018-04-29T16:46:50.364Z,7.80
2018-04-29T16:49:18.557Z,7.10
2018-04-29T16:51:46.762Z,6.77
2018-04-29T16:54:14.939Z,7.50
2018-04-29T16:56:42.416Z,7.53
2018-04-29T16:59:09.879Z,6.93
2018-04-29T17:01:38.560Z,6.60
2018-04-29T17:04:06.004Z,6.80
2018-04-29T17:06:33.416Z,7.27
2018-04-29T17:09:00.828Z,7.50
2018-04-29T17:11:28.258Z,6.57
2018-04-29T17:13:55.837Z,6.90
2018-04-29T17:16:23.991Z,7.40
2018-04-29T17:18:52.174Z,6.50
2018-04-29T17:21:20.357Z,6.90
2018-04-29T17:23:48.572Z,6.90
2018-04-29T17:26:15.989Z,6.63
2018-04-29T17:28:43.550Z,6.70
2018-04-29T17:31:10.983Z,6.70
2018-04-29T17:33:38.443Z,6.50
2018-04-29T17:36:05.843Z,6.47
2018-04-29T17:38:33.272Z,6.90
2018-04-29T17:41:01.473Z,6.87
2018-04-29T17:43:28.904Z,6.70
2018-04-29T17:45:56.324Z,6.30
2018-04-29T17:48:23.780Z,7.40
2018-04-29T17:50:51.193Z,6.03
2018-04-29T17:53:18.729Z,6.80
2018-04-29T17:55:46.135Z,6.50
2018-04-29T17:58:13.554Z,6.67
2018-04-29T18:00:41.031Z,6.87
2018-04-29T18:03:09.812Z,6.35
2018-04-29T18:05:38.908Z,6.60
2018-04-29T18:08:07.143Z,6.73
2018-04-29T18:10:36.464Z,6.03
2018-04-29T18:13:03.895Z,6.60
2018-04-29T18:15:31.304Z,5.80
2018-04-29T18:17:58.737Z,5.97
2018-04-29T18:20:27.069Z,6.93
2018-04-29T18:22:54.514Z,6.83
2018-04-29T18:25:21.909Z,6.53
2018-04-29T18:27:49.328Z,6.93
2018-04-29T18:30:16.735Z,6.35
2018-04-29T18:32:44.164Z,6.83
2018-04-29T18:35:11.582Z,6.47
2018-04-29T18:37:39.770Z,6.97
2018-04-29T18:40:07.180Z,6.30
2018-04-29T18:42:34.878Z,6.40
2018-04-29T18:45:02.334Z,6.57
2018-04-29T18:47:29.761Z,7.23
2018-04-29T18:49:57.206Z,6.10
2018-04-29T18:52:24.650Z,5.70
2018-04-29T18:54:52.050Z,6.50
2018-04-29T18:57:19.620Z,6.30
2018-04-29T18:59:47.045Z,7.70
2018-04-29T19:02:14.474Z,6.00
2018-04-29T19:04:41.872Z,6.13
2018-04-29T19:07:10.224Z,6.22
2018-04-29T19:09:37.643Z,6.33
2018-04-29T19:12:05.116Z,7.60
2018-04-29T19:14:32.534Z,6.70
2018-04-29T19:16:59.948Z,7.27
2018-04-29T19:19:27.367Z,6.50
2018-04-29T19:21:54.881Z,6.47
2018-04-29T19:24:22.320Z,6.07
2018-04-29T19:26:50.503Z,6.20
2018-04-29T19:29:17.928Z,5.80
2018-04-29T19:31:45.349Z,7.20
2018-04-29T19:34:13.602Z,6.70
2018-04-29T19:36:41.031Z,7.43
2018-04-29T19:39:08.470Z,6.40
2018-04-29T19:41:35.946Z,7.57
2018-04-29T19:44:04.138Z,7.20
2018-04-29T19:46:32.358Z,6.67
2018-04-29T19:48:59.821Z,6.17
2018-04-29T19:51:27.274Z,6.70
2018-04-29T19:53:54.683Z,6.03
2018-04-29T19:56:22.102Z,5.90
2018-04-29T19:58:50.338Z,6.80
2018-04-29T20:01:17.748Z,6.70
2018-04-29T20:03:45.931Z,6.50
2018-04-29T20:06:14.137Z,6.10
2018-04-29T20:08:41.548Z,5.90
2018-04-29T20:11:08.968Z,5.87
2018-04-29T20:13:37.203Z,6.00
2018-04-29T20:16:04.645Z,6.10
2018-04-29T20:18:32.146Z,6.50
2018-04-29T20:20:59.536Z,5.80
2018-04-29T20:23:27.714Z,5.83
2018-04-29T20:25:55.362Z,6.03
2018-04-29T20:28:22.764Z,6.37
2018-04-29T20:30:50.948Z,5.93
2018-04-29T20:33:19.295Z,5.80
2018-04-29T20:35:46.700Z,6.10
2018-04-29T20:38:14.145Z,5.90
2018-04-29T20:40:42.112Z,6.10
2018-04-29T20:43:09.528Z,6.13
2018-04-29T20:45:37.768Z,5.47
2018-04-29T20:48:05.186Z,6.20
2018-04-29T20:50:33.369Z,6.00
2018-04-29T20:53:01.548Z,6.10
2018-04-29T20:55:29.735Z,5.87
2018-04-29T20:57:57.908Z,5.73
2018-04-29T21:00:25.326Z,6.37
2018-04-29T21:02:52.885Z,6.72
2018-04-29T21:05:20.296Z,6.00
2018-04-29T21:07:47.720Z,5.90
2018-04-29T21:10:15.912Z,6.30
2018-04-29T21:12:43.327Z,6.17
2018-04-29T21:15:10.864Z,6.80
2018-04-29T21:17:38.337Z,6.13
2018-04-29T21:20:05.756Z,6.30
2018-04-29T21:22:33.929Z,6.43
2018-04-29T21:25:01.445Z,7.10
2018-04-29T21:27:28.862Z,6.23
2018-04-29T21:29:56.273Z,6.70
2018-04-29T21:32:23.749Z,6.40
2018-04-29T21:34:51.212Z,7.30
2018-04-29T21:37:18.647Z,7.43
2018-04-29T21:39:46.068Z,6.83
2018-04-29T21:42:15.548Z,7.37
2018-04-29T21:44:44.369Z,7.00
2018-04-29T21:47:11.797Z,6.57
2018-04-29T21:49:39.211Z,7.00
2018-04-29T21:52:06.645Z,7.23
2018-04-29T21:54:34.070Z,6.73
2018-04-29T21:57:01.492Z,6.60
2018-04-29T21:59:29.672Z,7.10
2018-04-29T22:01:57.867Z,7.00
2018-04-29T22:04:26.042Z,7.50
2018-04-29T22:06:53.448Z,7.50
2018-04-29T22:09:20.869Z,7.03
2018-04-29T22:11:48.304Z,6.90
2018-04-29T22:14:15.707Z,7.47
2018-04-29T22:16:45.052Z,6.80
2018-04-29T22:19:12.467Z,7.03
2018-04-29T22:21:40.056Z,7.07
2018-04-29T22:24:07.433Z,7.20
2018-04-29T22:26:35.615Z,7.43
2018-04-29T22:29:03.013Z,6.67
2018-04-29T22:31:30.481Z,6.73
2018-04-29T22:33:57.981Z,9.17
2018-04-29T22:36:26.477Z,6.95
2018-04-29T22:38:53.864Z,7.07
2018-04-29T22:41:21.301Z,7.93
2018-04-29T22:43:48.715Z,7.50
2018-04-29T22:46:16.128Z,7.83
2018-04-29T22:48:43.544Z,7.50
2018-04-29T22:51:10.964Z,7.90
2018-04-29T22:53:38.392Z,7.00
2018-04-29T22:56:06.715Z,8.00
2018-04-29T22:58:34.918Z,7.10
2018-04-29T23:01:02.320Z,7.57
2018-04-29T23:03:29.916Z,7.53
2018-04-29T23:05:57.261Z,7.77
2018-04-29T23:08:24.678Z,7.87
2018-04-29T23:10:52.097Z,7.60
2018-04-29T23:13:19.518Z,7.97
2018-04-29T23:15:46.943Z,7.87
2018-04-29T23:18:16.784Z,8.20
2018-04-29T23:20:45.888Z,8.87
2018-04-29T23:23:14.094Z,8.50
2018-04-29T23:25:41.512Z,8.00
2018-04-29T23:28:08.932Z,8.30
2018-04-29T23:30:36.352Z,7.50
2018-04-29T23:33:03.772Z,8.90
2018-04-29T23:35:31.242Z,7.53
2018-04-29T23:37:58.667Z,8.17
2018-04-29T23:40:26.080Z,7.83
2018-04-29T23:42:53.493Z,7.63
2018-04-29T23:45:20.912Z,8.40
2018-04-29T23:47:48.329Z,7.87
2018-04-29T23:50:16.839Z,7.87
2018-04-29T23:52:44.261Z,8.30
2018-04-29T23:55:11.676Z,8.00
2018-04-29T23:57:39.868Z,8.40
